Time;durP1;ratioP1;P1;durP2;ratioP2;P2;SDS_P1;SDS_P2;PMS_P1;PMS_P2;Temp;Humidity;BMP_temperature;BMP_pressure;BME280_temperature;BME280_humidity;BME280_pressure;Samples;Min_cycle;Max_cycle;Signal;HPM_P1;HPM_P2
2022/06/17 00:01:37;;;;;;;32.27;16.17;;;;;;;18.17;64.98;95232.97;5000334;28;20092;-79
2022/06/17 00:04:02;;;;;;;27.35;17.58;;;;;;;18.13;64.88;95236.44;5013048;28;20050;-80
2022/06/17 00:06:33;;;;;;;28.08;17.23;;;;;;;18.08;65.11;95234.59;5002967;28;20034;-79
2022/06/17 00:08:58;;;;;;;34.58;17.77;;;;;;;18.05;65.27;95237.75;5003127;28;20037;-79
2022/06/17 00:11:30;;;;;;;27.02;17.88;;;;;;;18.00;65.14;95238.56;4996884;28;20038;-79
2022/06/17 00:13:56;;;;;;;25.48;15.65;;;;;;;17.94;65.45;95234.38;5007231;28;20107;-79
2022/06/17 00:16:22;;;;;;;35.53;17.38;;;;;;;17.88;65.74;95235.44;4995757;28;20044;-79
2022/06/17 00:18:48;;;;;;;33.92;16.13;;;;;;;17.83;65.92;95240.72;5011557;28;20490;-79
2022/06/17 00:21:22;;;;;;;37.15;17.08;;;;;;;17.76;65.94;95242.06;4991925;28;20160;-79
2022/06/17 00:23:48;;;;;;;28.17;17.10;;;;;;;17.67;65.85;95252.28;5020435;28;20034;-78
2022/06/17 00:26:13;;;;;;;26.23;15.98;;;;;;;17.59;66.20;95242.31;5012322;28;20041;-79
2022/06/17 00:28:39;;;;;;;31.08;16.58;;;;;;;17.54;66.22;95239.66;5013196;28;20030;-80
2022/06/17 00:31:05;;;;;;;25.85;16.95;;;;;;;17.48;66.87;95238.09;5013014;28;20057;-79
2022/06/17 00:33:30;;;;;;;38.00;17.10;;;;;;;17.48;66.53;95246.00;5020135;28;20042;-79
2022/06/17 00:35:56;;;;;;;29.70;15.85;;;;;;;17.44;66.26;95244.94;5011497;28;20030;-79
2022/06/17 00:38:25;;;;;;;25.80;16.17;;;;;;;17.37;66.74;95243.34;5009966;28;20049;-78
2022/06/17 00:40:51;;;;;;;21.60;15.52;;;;;;;17.34;66.75;95240.47;4997004;28;20033;-80
2022/06/17 00:43:30;;;;;;;28.70;14.95;;;;;;;17.29;66.97;95243.91;4998017;28;20045;-79
2022/06/17 00:46:23;;;;;;;20.55;14.98;;;;;;;17.21;67.26;95231.25;4997304;28;20064;-79
2022/06/17 00:49:05;;;;;;;24.23;15.27;;;;;;;17.14;67.69;95235.22;5013730;28;20026;-79
2022/06/17 00:51:34;;;;;;;20.27;14.30;;;;;;;17.07;67.34;95230.19;5011543;28;20032;-79
2022/06/17 00:54:21;;;;;;;18.45;15.00;;;;;;;17.03;67.78;95231.78;5040096;22;20197;-79
2022/06/17 00:56:46;;;;;;;17.90;13.48;;;;;;;16.99;67.93;95228.09;5057125;28;20055;-79
2022/06/17 00:59:15;;;;;;;20.27;14.80;;;;;;;16.90;68.31;95219.94;5051285;28;20029;-79
2022/06/17 01:01:43;;;;;;;18.05;13.90;;;;;;;16.92;67.98;95231.00;5035509;28;20024;-79
2022/06/17 01:04:10;;;;;;;23.42;14.27;;;;;;;16.90;68.56;95235.69;5042049;28;20058;-79
2022/06/17 01:06:37;;;;;;;20.30;14.30;;;;;;;16.87;68.38;95225.72;5018386;28;20042;-79
2022/06/17 01:11:53;;;;;;;20.30;14.07;;;;;;;16.82;68.48;95227.56;5052816;28;20044;-79
2022/06/17 01:14:19;;;;;;;23.50;13.15;;;;;;;16.77;68.53;95223.88;5035896;28;20053;-79
2022/06/17 01:16:44;;;;;;;15.80;12.68;;;;;;;16.77;68.67;95226.50;5018694;28;20030;-79
2022/06/17 01:19:21;;;;;;;25.30;13.02;;;;;;;16.76;68.87;95219.69;5018633;28;20037;-79
2022/06/17 01:21:51;;;;;;;23.15;13.35;;;;;;;16.74;68.55;95224.38;5053824;23;20049;-78
2022/06/17 01:24:17;;;;;;;28.52;13.90;;;;;;;16.69;68.49;95219.13;5041703;28;20059;-79
2022/06/17 01:26:42;;;;;;;19.75;13.30;;;;;;;16.70;68.75;95212.81;5007641;28;20136;-79
2022/06/17 01:29:13;;;;;;;17.05;13.43;;;;;;;16.70;68.52;95210.19;5042218;28;20042;-79
2022/06/17 01:31:38;;;;;;;20.20;14.27;;;;;;;16.70;68.66;95209.41;5024592;28;20029;-79
2022/06/17 01:34:04;;;;;;;20.73;14.15;;;;;;;16.70;68.61;95204.16;5042994;28;20037;-79
2022/06/17 01:36:29;;;;;;;18.60;14.18;;;;;;;16.71;69.12;95196.03;5007852;28;20100;-79
2022/06/17 01:38:56;;;;;;;16.88;13.70;;;;;;;16.69;68.99;95203.38;5004352;28;20075;-78
2022/06/17 01:41:31;;;;;;;21.35;15.10;;;;;;;16.67;68.96;95210.72;5005860;28;20029;-78
2022/06/17 01:43:59;;;;;;;19.70;14.13;;;;;;;16.63;68.96;95198.34;5020032;28;20452;-79
2022/06/17 01:46:44;;;;;;;20.92;14.45;;;;;;;16.58;69.75;95196.47;5004475;28;20088;-78
2022/06/17 01:49:15;;;;;;;28.05;14.50;;;;;;;16.55;69.54;95198.84;5002913;28;20033;-78
2022/06/17 01:51:42;;;;;;;31.60;14.07;;;;;;;16.48;69.73;95202.50;5005805;28;20048;-79
2022/06/17 01:54:14;;;;;;;22.33;13.70;;;;;;;16.44;70.02;95206.72;5021172;28;20037;-78
2022/06/17 01:56:40;;;;;;;21.58;14.95;;;;;;;16.44;69.77;95201.47;5023228;28;20041;-78
2022/06/17 01:59:11;;;;;;;19.42;16.02;;;;;;;16.43;70.04;95197.25;5040273;28;20493;-79
2022/06/17 02:01:37;;;;;;;20.70;15.15;;;;;;;16.45;70.07;95200.41;5005921;28;20089;-78
2022/06/17 02:04:15;;;;;;;19.88;15.55;;;;;;;16.46;69.91;95204.63;5006870;28;20037;-79
2022/06/17 02:06:50;;;;;;;25.00;14.88;;;;;;;16.44;70.10;95211.16;5009138;28;20036;-79
2022/06/17 02:09:16;;;;;;;21.85;15.25;;;;;;;16.44;70.03;95216.44;5008825;28;20120;-79
2022/06/17 02:11:41;;;;;;;20.63;14.93;;;;;;;16.42;69.94;95216.66;5007914;28;20041;-79
2022/06/17 02:14:08;;;;;;;24.55;15.70;;;;;;;16.42;69.95;95216.66;5008552;28;20025;-79
2022/06/17 02:16:41;;;;;;;27.17;15.65;;;;;;;16.40;70.01;95217.97;5024989;28;20469;-79
2022/06/17 02:19:07;;;;;;;24.05;15.73;;;;;;;16.36;70.21;95216.91;5009162;28;20060;-79
2022/06/17 02:21:43;;;;;;;25.67;16.77;;;;;;;16.39;70.46;95224.25;5010649;28;20069;-79
2022/06/17 02:24:09;;;;;;;26.90;17.30;;;;;;;16.39;70.29;95232.13;5011296;28;20480;-79
2022/06/17 02:26:34;;;;;;;30.02;16.35;;;;;;;16.35;70.33;95223.22;5008543;28;20037;-78
2022/06/17 02:29:04;;;;;;;29.98;16.92;;;;;;;16.33;70.25;95223.47;5008499;28;20041;-79
2022/06/17 02:31:30;;;;;;;24.15;16.38;;;;;;;16.32;70.23;95221.88;5004350;28;20025;-80
2022/06/17 02:33:56;;;;;;;22.33;16.35;;;;;;;16.31;70.05;95216.91;5018927;28;20045;-78
2022/06/17 02:36:24;;;;;;;21.75;16.05;;;;;;;16.30;70.30;95217.94;5003682;28;20484;-79
2022/06/17 02:38:52;;;;;;;30.92;18.08;;;;;;;16.25;70.36;95217.91;5039632;28;20112;-78
2022/06/17 02:41:19;;;;;;;36.85;18.33;;;;;;;16.23;70.50;95220.00;5004955;28;20029;-79
2022/06/17 02:44:06;;;;;;;37.42;17.65;;;;;;;16.23;70.61;95236.53;5038219;28;20048;-79
2022/06/17 02:46:34;;;;;;;45.88;19.02;;;;;;;16.21;70.64;95228.13;5021518;28;20067;-78
2022/06/17 02:49:05;;;;;;;38.63;19.33;;;;;;;16.19;70.90;95225.78;5021204;28;20041;-80
2022/06/17 02:51:33;;;;;;;31.13;18.30;;;;;;;16.18;70.63;95231.28;5017541;28;20041;-79
2022/06/17 02:53:59;;;;;;;43.45;17.92;;;;;;;16.15;70.43;95224.72;5010035;28;20047;-79
2022/06/17 02:56:28;;;;;;;29.13;17.55;;;;;;;16.12;70.31;95229.69;4999720;28;20033;-78
2022/06/17 02:59:03;;;;;;;22.17;16.63;;;;;;;16.10;70.12;95235.16;4999671;28;20030;-78
2022/06/17 03:01:31;;;;;;;38.90;16.25;;;;;;;16.07;70.15;95230.44;5031918;28;20065;-78
2022/06/17 03:03:57;;;;;;;22.98;14.02;;;;;;;16.05;70.15;95221.25;5014693;28;20033;-78
2022/06/17 03:06:37;;;;;;;23.45;14.68;;;;;;;16.03;70.43;95224.13;4999888;28;20036;-78
2022/06/17 03:09:19;;;;;;;23.38;15.35;;;;;;;16.07;70.25;95222.56;5016280;28;20041;-78
2022/06/17 03:11:47;;;;;;;25.10;14.55;;;;;;;16.10;70.10;95216.78;5034959;28;20895;-78
2022/06/17 03:14:13;;;;;;;40.80;14.70;;;;;;;16.09;69.56;95217.06;5000131;28;20037;-79
2022/06/17 03:16:40;;;;;;;36.85;14.68;;;;;;;16.15;69.76;95224.72;5018276;28;20045;-79
2022/06/17 03:19:05;;;;;;;27.48;14.35;;;;;;;16.21;69.62;95228.94;5023056;28;20037;-79
2022/06/17 03:21:31;;;;;;;27.10;14.43;;;;;;;16.24;69.24;95230.25;5022999;28;20637;-79
2022/06/17 03:24:14;;;;;;;24.33;12.95;;;;;;;16.30;69.07;95226.59;5008723;28;20049;-79
2022/06/17 03:26:43;;;;;;;23.38;13.10;;;;;;;16.35;68.78;95228.44;5022865;28;20051;-79
2022/06/17 03:29:09;;;;;;;20.25;12.63;;;;;;;16.41;68.74;95228.19;5004228;28;20044;-78
2022/06/17 03:31:45;;;;;;;22.67;13.05;;;;;;;16.47;68.90;95231.66;5019349;28;20042;-78
2022/06/17 03:34:17;;;;;;;26.73;12.93;;;;;;;16.54;68.25;95232.19;5017840;28;20033;-78
2022/06/17 03:37:13;;;;;;;45.53;14.57;;;;;;;16.62;68.01;95231.69;5009816;28;20516;-78
2022/06/17 03:39:41;;;;;;;20.50;12.18;;;;;;;16.65;68.48;95233.81;5041766;28;20622;-80
2022/06/17 03:42:25;;;;;;;21.27;13.15;;;;;;;16.73;68.68;95240.41;4993056;28;20029;-78
2022/06/17 03:45:14;;;;;;;16.95;12.57;;;;;;;16.82;68.43;95238.06;5027338;28;20030;-78
2022/06/17 03:47:55;;;;;;;15.80;12.63;;;;;;;16.94;67.53;95244.66;5031348;28;20061;-79
2022/06/17 03:50:25;;;;;;;17.30;12.50;;;;;;;17.05;66.63;95248.06;5042509;28;20025;-79
2022/06/17 03:53:01;;;;;;;17.67;13.02;;;;;;;17.11;65.69;95233.91;5043373;28;20523;-78
2022/06/17 03:55:27;;;;;;;24.77;13.55;;;;;;;17.30;65.77;95249.94;5043501;28;20029;-79
2022/06/17 03:57:54;;;;;;;28.30;13.98;;;;;;;17.49;64.99;95258.09;4992550;28;20064;-80
2022/06/17 04:00:32;;;;;;;24.35;13.35;;;;;;;17.67;64.89;95260.16;5008610;28;20036;-79
2022/06/17 04:03:01;;;;;;;23.17;13.02;;;;;;;18.23;63.98;95258.25;5040236;28;20037;-78
2022/06/17 04:05:27;;;;;;;23.55;13.10;;;;;;;19.97;58.02;95252.63;5006109;28;20038;-80
2022/06/17 04:07:53;;;;;;;17.80;10.77;;;;;;;21.93;51.63;95248.63;4999035;28;20072;-79
2022/06/17 04:10:20;;;;;;;22.20;10.63;;;;;;;23.86;47.01;95247.94;5040967;28;20034;-79
2022/06/17 04:12:49;;;;;;;14.52;9.85;;;;;;;25.67;42.35;95242.19;5026849;28;20034;-80
2022/06/17 04:15:37;;;;;;;22.58;10.40;;;;;;;27.47;38.49;95254.16;5026375;28;20099;-80
2022/06/17 04:18:05;;;;;;;17.90;8.02;;;;;;;29.10;35.19;95250.66;5042950;28;20040;-79
2022/06/17 04:21:05;;;;;;;9.93;7.93;;;;;;;30.42;31.69;95249.59;5024168;28;20041;-79
2022/06/17 04:23:33;;;;;;;23.80;8.43;;;;;;;31.41;29.53;95255.66;5040881;28;20057;-79
2022/06/17 04:26:10;;;;;;;14.98;8.00;;;;;;;32.44;28.39;95256.75;5025383;28;20036;-80
2022/06/17 04:29:01;;;;;;;11.60;7.60;;;;;;;33.31;26.90;95260.31;5026703;28;20036;-80
2022/06/17 04:31:28;;;;;;;17.33;7.55;;;;;;;34.29;25.57;95249.06;5023655;28;20052;-80
2022/06/17 04:34:06;;;;;;;12.32;6.55;;;;;;;35.31;24.41;95249.34;5010335;28;20124;-79
2022/06/17 04:36:43;;;;;;;25.17;6.78;;;;;;;36.22;23.23;95255.44;5010107;28;20046;-80
2022/06/17 04:39:37;;;;;;;18.65;7.47;;;;;;;37.09;22.02;95252.31;5042950;28;20133;-80
2022/06/17 04:42:10;;;;;;;17.45;7.00;;;;;;;37.78;21.32;95249.00;5040188;28;20440;-78
2022/06/17 04:44:35;;;;;;;18.52;7.85;;;;;;;38.46;20.32;95248.53;5008620;28;20040;-79
2022/06/17 04:47:12;;;;;;;12.77;6.53;;;;;;;39.00;19.68;95247.66;5024682;28;20038;-78
2022/06/17 04:49:40;;;;;;;16.52;6.07;;;;;;;39.53;19.29;95253.69;5024222;28;20034;-79
2022/06/17 04:52:11;;;;;;;12.38;5.53;;;;;;;39.97;18.73;95243.81;5024069;28;20033;-79
2022/06/17 04:54:37;;;;;;;10.07;5.50;;;;;;;40.47;18.17;95244.59;5025078;28;20030;-78
2022/06/17 04:57:03;;;;;;;17.33;5.55;;;;;;;41.07;17.64;95247.47;5013127;28;20059;-79
2022/06/17 04:59:37;;;;;;;19.42;6.05;;;;;;;41.62;17.14;95248.72;5026241;28;20044;-79
2022/06/17 05:02:27;;;;;;;13.48;4.63;;;;;;;42.02;16.67;95237.75;5024637;28;20061;-79
2022/06/17 05:04:54;;;;;;;13.35;5.05;;;;;;;42.62;16.24;95246.50;5025689;28;20053;-79
2022/06/17 05:07:20;;;;;;;11.18;5.20;;;;;;;43.22;15.71;95244.94;5038841;28;20026;-79
2022/06/17 05:09:49;;;;;;;8.82;5.00;;;;;;;43.52;15.24;95245.69;5004036;28;20044;-79
2022/06/17 05:12:16;;;;;;;13.18;4.75;;;;;;;43.52;15.23;95241.00;5022148;28;20455;-79
2022/06/17 05:14:51;;;;;;;9.80;4.90;;;;;;;43.49;15.44;95238.34;5025249;28;20034;-80
2022/06/17 05:17:18;;;;;;;13.23;4.45;;;;;;;43.33;14.91;95234.50;5023536;28;20484;-79
2022/06/17 05:19:43;;;;;;;15.88;4.88;;;;;;;42.82;15.20;95233.50;5036672;28;20036;-79
2022/06/17 05:22:20;;;;;;;13.65;4.35;;;;;;;42.62;15.94;95239.06;5006173;28;20029;-79
2022/06/17 05:24:45;;;;;;;7.72;4.38;;;;;;;43.09;15.24;95238.66;5007139;28;20041;-79
2022/06/17 05:27:11;;;;;;;15.23;4.50;;;;;;;43.69;14.73;95236.19;5006174;28;20017;-79
2022/06/17 05:29:36;;;;;;;9.07;3.95;;;;;;;44.23;14.09;95233.38;4990864;28;20468;-79
2022/06/17 05:32:03;;;;;;;10.18;4.20;;;;;;;44.44;13.95;95231.94;5022205;28;20553;-79
2022/06/17 05:34:28;;;;;;;16.23;3.85;;;;;;;44.74;14.24;95232.53;4991779;28;20477;-80
2022/06/17 05:36:56;;;;;;;11.02;4.15;;;;;;;45.13;13.28;95236.69;5022792;28;20059;-79
2022/06/17 05:39:23;;;;;;;18.48;4.53;;;;;;;45.31;13.80;95227.84;5023098;28;20033;-79
2022/06/17 05:41:49;;;;;;;10.18;4.28;;;;;;;45.35;12.59;95225.72;5038752;28;20040;-79
2022/06/17 05:44:15;;;;;;;9.98;4.47;;;;;;;44.93;13.35;95228.78;5020553;28;20421;-80
2022/06/17 05:46:43;;;;;;;12.25;4.07;;;;;;;45.17;13.25;95226.34;5020735;28;20052;-80
2022/06/17 05:49:08;;;;;;;13.68;4.03;;;;;;;45.50;13.08;95223.97;5004338;28;20079;-80
2022/06/17 05:51:34;;;;;;;13.32;3.63;;;;;;;45.94;12.64;95221.16;5035329;28;20445;-79
2022/06/17 05:54:02;;;;;;;7.25;3.60;;;;;;;46.17;12.06;95217.88;5005471;28;20025;-79
2022/06/17 05:56:27;;;;;;;13.63;4.55;;;;;;;46.50;12.09;95215.38;5035556;28;20124;-80
2022/06/17 05:58:52;;;;;;;13.38;4.68;;;;;;;46.65;11.75;95218.31;5034587;28;20037;-80
2022/06/17 06:01:18;;;;;;;12.05;4.35;;;;;;;46.75;11.81;95211.59;5036691;28;20040;-80
2022/06/17 06:03:44;;;;;;;16.70;4.18;;;;;;;47.02;11.50;95213.59;5015602;28;20035;-80
2022/06/17 06:06:10;;;;;;;15.57;4.50;;;;;;;47.08;11.74;95211.75;5018631;28;20033;-80
2022/06/17 06:08:35;;;;;;;20.70;4.65;;;;;;;47.33;11.85;95210.66;5039696;28;20083;-80
2022/06/17 06:11:04;;;;;;;10.23;3.90;;;;;;;47.09;11.82;95207.00;5021911;28;20034;-79
2022/06/17 06:13:29;;;;;;;10.63;3.85;;;;;;;46.68;12.28;95206.38;5040154;28;20029;-80
2022/06/17 06:15:55;;;;;;;13.10;4.18;;;;;;;45.73;12.75;95209.03;5037663;28;20033;-80
2022/06/17 06:18:27;;;;;;;15.55;4.50;;;;;;;44.97;13.00;95204.69;5022489;28;20029;-79
2022/06/17 06:20:53;;;;;;;11.05;4.30;;;;;;;44.91;12.93;95203.72;5007398;28;20116;-79
2022/06/17 06:23:18;;;;;;;17.25;4.82;;;;;;;45.07;13.21;95200.78;5014456;28;20440;-78
2022/06/17 06:25:44;;;;;;;10.02;4.13;;;;;;;45.40;12.58;95205.91;5033521;28;20025;-77
2022/06/17 06:28:15;;;;;;;16.52;4.40;;;;;;;45.40;12.77;95201.22;5010420;28;20079;-78
2022/06/17 06:30:41;;;;;;;16.60;3.58;;;;;;;45.55;12.85;95200.66;4993728;28;20033;-78
2022/06/17 06:33:08;;;;;;;14.70;4.47;;;;;;;45.66;13.06;95196.31;5013454;28;20029;-79
2022/06/17 06:35:35;;;;;;;13.60;3.60;;;;;;;45.39;12.77;95194.16;5013332;28;20047;-78
2022/06/17 06:38:01;;;;;;;23.60;3.70;;;;;;;44.46;13.32;95191.13;5015085;28;20059;-80
2022/06/17 06:40:27;;;;;;;14.63;3.75;;;;;;;43.93;14.00;95195.56;5041212;28;20034;-80
2022/06/17 06:42:53;;;;;;;9.40;3.88;;;;;;;43.76;13.79;95191.41;5022660;28;20036;-80
2022/06/17 06:45:27;;;;;;;11.02;3.90;;;;;;;43.60;14.02;95186.75;5036732;28;20148;-78
2022/06/17 06:47:53;;;;;;;9.73;4.18;;;;;;;43.14;14.40;95189.63;5031172;28;20962;-77
2022/06/17 06:50:20;;;;;;;8.82;3.30;;;;;;;42.40;15.32;95195.06;4996119;28;20504;-77
2022/06/17 06:52:46;;;;;;;6.57;3.60;;;;;;;41.98;15.00;95194.09;5020452;28;20059;-80
2022/06/17 06:55:14;;;;;;;12.55;3.58;;;;;;;41.46;16.06;95186.66;5038388;28;20065;-80
2022/06/17 06:58:01;;;;;;;8.45;3.75;;;;;;;41.22;16.13;95193.41;5013956;28;20026;-79
2022/06/17 07:00:38;;;;;;;5.97;3.15;;;;;;;40.43;16.32;95194.84;4995591;28;20057;-77
2022/06/17 07:03:04;;;;;;;15.60;3.28;;;;;;;40.05;17.29;95188.06;5018806;28;20045;-77
2022/06/17 07:05:30;;;;;;;10.10;3.40;;;;;;;39.58;17.20;95185.22;4995101;28;20044;-78
2022/06/17 07:07:56;;;;;;;13.30;2.90;;;;;;;38.91;18.13;95184.06;4999210;28;20056;-78
2022/06/17 07:10:25;;;;;;;11.00;3.70;;;;;;;39.02;17.87;95187.41;4980007;28;20048;-77
2022/06/17 07:12:51;;;;;;;4.10;2.80;;;;;;;38.47;18.78;95174.00;5013659;28;20485;-77
2022/06/17 07:15:17;;;;;;;12.63;3.50;;;;;;;37.93;19.22;95174.44;4994405;28;20157;-76
2022/06/17 07:18:00;;;;;;;7.85;3.05;;;;;;;37.41;19.74;95177.03;5025808;28;20522;-75
2022/06/17 07:20:27;;;;;;;11.90;2.90;;;;;;;37.38;19.93;95179.78;4995070;28;20051;-75
2022/06/17 07:22:53;;;;;;;12.82;3.10;;;;;;;37.20;19.71;95171.69;5029003;28;20149;-75
2022/06/17 07:25:21;;;;;;;17.10;3.20;;;;;;;36.66;20.88;95177.28;5028589;28;20041;-75
2022/06/17 07:27:47;;;;;;;10.10;3.67;;;;;;;36.42;20.72;95171.91;5029140;28;20057;-77
2022/06/17 07:30:17;;;;;;;10.68;3.75;;;;;;;36.00;21.25;95168.03;5010969;28;20072;-77
2022/06/17 07:32:43;;;;;;;19.48;3.47;;;;;;;35.76;22.25;95181.13;4993107;28;20042;-76
2022/06/17 07:35:09;;;;;;;18.35;3.58;;;;;;;35.64;21.91;95162.56;4995320;28;20034;-77
2022/06/17 07:40:19;;;;;;;12.48;3.63;;;;;;;34.81;23.05;95163.38;5011911;28;20091;-76
2022/06/17 07:42:44;;;;;;;18.60;4.03;;;;;;;34.31;23.81;95160.34;5027426;28;20046;-75
2022/06/17 07:45:18;;;;;;;12.07;3.60;;;;;;;33.94;24.69;95162.41;4988635;28;20467;-75
2022/06/17 07:47:43;;;;;;;12.15;4.10;;;;;;;33.80;24.88;95157.63;5009510;28;20037;-75
2022/06/17 07:50:13;;;;;;;9.95;4.28;;;;;;;33.67;25.16;95159.81;5028111;28;20035;-76
2022/06/17 07:52:39;;;;;;;10.93;4.40;;;;;;;33.41;26.58;95152.63;4994374;28;20030;-75
2022/06/17 07:55:05;;;;;;;14.90;4.32;;;;;;;33.34;27.07;95154.47;5011165;28;20056;-76
2022/06/17 07:57:31;;;;;;;10.00;4.22;;;;;;;33.23;26.71;95159.72;5026672;28;20048;-75
2022/06/17 07:59:56;;;;;;;14.10;4.40;;;;;;;33.14;27.64;95153.84;5009092;28;20433;-76
2022/06/17 08:02:22;;;;;;;17.15;3.80;;;;;;;32.91;26.70;95150.50;5022891;28;20470;-75
2022/06/17 08:04:47;;;;;;;10.05;4.20;;;;;;;32.69;26.41;95160.19;5025766;28;20084;-75
2022/06/17 08:07:13;;;;;;;8.95;4.10;;;;;;;32.62;27.60;95142.03;5008997;28;20033;-75
2022/06/17 08:09:38;;;;;;;8.60;4.22;;;;;;;32.26;27.60;95154.19;5026193;28;20501;-75
2022/06/17 08:12:08;;;;;;;10.40;4.63;;;;;;;31.89;28.13;95145.91;5023618;28;20076;-75
2022/06/17 08:14:35;;;;;;;24.25;4.80;;;;;;;31.80;27.71;95148.06;5008487;28;20085;-75
2022/06/17 08:17:02;;;;;;;5.05;4.28;;;;;;;31.71;28.95;95145.56;5024011;28;20068;-75
2022/06/17 08:19:28;;;;;;;16.80;4.57;;;;;;;31.67;29.31;95150.13;5006964;28;20415;-77
2022/06/17 08:21:53;;;;;;;20.73;4.40;;;;;;;31.61;30.50;95146.97;5006964;28;20036;-74
2022/06/17 08:24:19;;;;;;;8.23;4.18;;;;;;;31.40;29.50;95148.47;5025137;28;20025;-74
2022/06/17 08:26:44;;;;;;;6.70;3.97;;;;;;;31.05;29.22;95135.91;4992176;28;20029;-73
2022/06/17 08:29:10;;;;;;;15.38;4.47;;;;;;;30.97;30.75;95140.38;5012339;28;20036;-73
2022/06/17 08:31:35;;;;;;;9.15;4.30;;;;;;;30.90;29.80;95129.47;5029353;28;20451;-75
2022/06/17 08:34:01;;;;;;;20.02;4.85;;;;;;;30.66;30.73;95137.81;5014053;28;20041;-74
2022/06/17 08:36:26;;;;;;;8.60;4.82;;;;;;;30.36;30.91;95126.78;5031309;28;20029;-78
2022/06/17 08:38:56;;;;;;;13.13;4.97;;;;;;;30.17;31.23;95127.53;5001246;28;20458;-80
2022/06/17 08:41:33;;;;;;;8.05;4.72;;;;;;;30.16;32.22;95124.06;4984429;28;20033;-80
2022/06/17 08:44:20;;;;;;;12.23;4.70;;;;;;;30.10;32.55;95124.66;4984499;28;20052;-79
2022/06/17 08:47:14;;;;;;;11.52;5.07;;;;;;;30.07;32.00;95117.31;5034602;28;20421;-79
2022/06/17 08:49:56;;;;;;;9.27;5.25;;;;;;;29.67;32.17;95123.63;5015512;28;20229;-78
2022/06/17 08:52:48;;;;;;;9.93;4.30;;;;;;;29.59;33.01;95120.00;5000082;28;20034;-79
2022/06/17 08:55:19;;;;;;;11.45;4.97;;;;;;;29.60;31.85;95120.75;4997600;28;20038;-79
2022/06/17 08:57:53;;;;;;;15.50;5.07;;;;;;;29.59;32.27;95116.53;5034123;28;20030;-79
2022/06/17 09:00:20;;;;;;;8.07;4.65;;;;;;;29.50;32.67;95123.97;5033162;28;20393;-78
2022/06/17 09:02:49;;;;;;;14.23;5.22;;;;;;;29.34;33.29;95131.97;4983058;28;20025;-78
2022/06/17 09:05:17;;;;;;;9.82;5.10;;;;;;;29.17;33.68;95127.69;5032556;28;20401;-79
2022/06/17 09:08:07;;;;;;;15.55;5.57;;;;;;;29.22;33.52;95129.34;5032853;28;20048;-79
2022/06/17 09:10:49;;;;;;;7.05;5.40;;;;;;;29.05;33.94;95129.66;5015837;28;20033;-80
2022/06/17 09:13:18;;;;;;;;;;;;;;;28.88;34.30;95125.34;5032169;28;20029;-79
2022/06/17 09:15:49;;;;;;;20.02;6.18;;;;;;;28.26;35.38;95126.59;5014838;28;19972;-78
2022/06/17 09:18:28;;;;;;;15.55;6.10;;;;;;;27.95;35.88;95130.59;4999274;28;20021;-78
2022/06/17 09:21:01;;;;;;;12.27;5.75;;;;;;;27.99;36.13;95120.03;5014903;28;20060;-78
2022/06/17 09:23:28;;;;;;;12.95;5.45;;;;;;;28.04;36.48;95120.56;4998906;28;20045;-78
2022/06/17 09:25:54;;;;;;;10.98;6.15;;;;;;;28.04;36.68;95120.56;4998767;28;20033;-78
2022/06/17 09:28:26;;;;;;;9.07;5.95;;;;;;;27.94;36.84;95121.00;4999100;28;20064;-78
2022/06/17 09:30:56;;;;;;;;;;;;;;;28.11;36.74;95118.09;5015248;28;20033;-78
2022/06/17 09:33:48;;;;;;;17.75;5.63;;;;;;;28.18;37.13;95117.56;4998913;28;19917;-79
2022/06/17 09:36:33;;;;;;;15.75;6.30;;;;;;;28.26;36.05;95116.66;4989946;28;20519;-79
2022/06/17 09:39:04;;;;;;;31.35;6.28;;;;;;;28.23;35.77;95113.88;5014492;28;20117;-79
2022/06/17 09:41:46;;;;;;;15.10;5.95;;;;;;;28.18;35.46;95111.44;5007063;28;20033;-78
2022/06/17 09:44:14;;;;;;;;;;;;;;;28.22;34.94;95104.28;5035568;28;20112;-78
2022/06/17 09:46:42;;;;;;;17.45;6.30;;;;;;;28.24;36.26;95107.41;5039785;28;19928;-78
2022/06/17 09:49:27;;;;;;;10.57;6.28;;;;;;;28.26;35.93;95105.97;5035174;28;20041;-79
2022/06/17 09:54:34;;;;;;;7.85;5.47;;;;;;;28.52;35.58;95108.28;5060663;22;20045;-78
2022/06/17 09:57:07;;;;;;;9.07;6.57;;;;;;;28.57;35.72;95110.69;5035915;28;20025;-78
2022/06/17 09:59:35;;;;;;;9.98;5.72;;;;;;;28.57;36.09;95101.91;5034454;28;20068;-78
2022/06/17 10:02:42;;;;;;;9.98;5.25;;;;;;;28.57;33.36;95110.69;5013222;28;20056;-78
2022/06/17 10:05:29;;;;;;;7.35;4.93;;;;;;;28.54;31.63;95107.94;5025794;28;20048;-78
2022/06/17 10:07:59;;;;;;;15.65;5.35;;;;;;;28.43;32.81;95110.28;5018974;28;20041;-77
2022/06/17 10:10:40;;;;;;;8.25;4.18;;;;;;;28.40;30.29;95105.63;5042901;28;20039;-78
2022/06/17 10:13:11;;;;;;;3.90;3.60;;;;;;;28.33;30.00;95100.06;5047579;28;20167;-79
2022/06/17 10:15:39;;;;;;;6.35;4.30;;;;;;;28.31;29.77;95102.28;5053264;28;20047;-77
2022/06/17 10:18:32;;;;;;;6.13;3.60;;;;;;;28.24;29.85;95107.41;5032053;28;20035;-74
2022/06/17 10:21:13;;;;;;;8.68;3.85;;;;;;;28.13;32.08;95107.06;5040510;28;20037;-75
2022/06/17 10:24:05;;;;;;;13.15;4.03;;;;;;;28.05;32.92;95100.75;5014541;28;20048;-75
2022/06/17 10:26:49;;;;;;;12.40;4.43;;;;;;;28.02;31.21;95098.75;5017402;28;20076;-75
2022/06/17 10:29:36;;;;;;;12.27;6.30;;;;;;;28.06;31.89;95093.50;5049164;28;20044;-74
2022/06/17 10:32:01;;;;;;;10.82;4.43;;;;;;;28.08;31.35;95088.59;5048254;28;20043;-73
2022/06/17 10:34:34;;;;;;;6.63;4.97;;;;;;;28.16;32.24;95086.94;5031045;28;20076;-74
2022/06/17 10:37:02;;;;;;;5.85;4.15;;;;;;;28.26;30.99;95086.47;5031241;28;20036;-74
2022/06/17 10:39:28;;;;;;;5.53;3.47;;;;;;;28.35;30.56;95084.47;5014284;28;20120;-73
2022/06/17 10:41:54;;;;;;;7.28;3.28;;;;;;;28.52;29.64;95088.75;5031366;28;20530;-72
2022/06/17 10:44:22;;;;;;;11.32;3.22;;;;;;;28.68;28.67;95093.06;5048810;28;20170;-73
2022/06/17 10:46:51;;;;;;;8.52;3.35;;;;;;;28.85;28.70;95093.91;5031082;28;20040;-73
2022/06/17 10:49:33;;;;;;;3.13;2.80;;;;;;;29.06;27.39;95089.13;5013803;28;20040;-72
2022/06/17 10:51:59;;;;;;;;;;;;;;;29.24;27.78;95097.63;5030886;28;20064;-74
2022/06/17 10:54:35;;;;;;;7.57;3.45;;;;;;;29.25;28.53;95097.28;5031586;28;19952;-75
2022/06/17 10:57:02;;;;;;;3.83;3.53;;;;;;;29.03;28.09;95089.81;5014754;28;20025;-76
2022/06/17 10:59:41;;;;;;;8.52;4.15;;;;;;;28.74;28.71;95085.56;5029429;28;20572;-74
2022/06/17 11:02:23;;;;;;;8.23;3.90;;;;;;;28.77;29.21;95084.09;5006354;28;20022;-74
2022/06/17 11:04:50;;;;;;;22.27;5.00;;;;;;;28.59;33.70;95100.44;5031753;28;20037;-74
2022/06/17 11:07:18;;;;;;;6.10;4.72;;;;;;;28.05;35.47;95095.41;5048781;28;20072;-74
2022/06/17 11:09:49;;;;;;;7.57;5.35;;;;;;;27.73;36.38;95102.41;5031573;28;20116;-74
2022/06/17 11:12:31;;;;;;;8.03;5.10;;;;;;;27.49;37.08;95097.78;5030954;28;20472;-74
2022/06/17 11:15:03;;;;;;;9.05;5.53;;;;;;;27.32;37.39;95092.63;5014987;28;20082;-74
2022/06/17 11:17:45;;;;;;;11.40;5.72;;;;;;;27.36;38.14;95095.44;5014915;28;20049;-74
2022/06/17 11:20:21;;;;;;;7.97;5.37;;;;;;;26.96;37.61;95103.97;5048507;28;20966;-74
2022/06/17 11:22:52;;;;;;;15.23;5.32;;;;;;;26.83;38.00;95105.81;5030310;28;20033;-74
2022/06/17 11:25:37;;;;;;;6.35;4.43;;;;;;;26.72;37.20;95098.56;5031280;28;20037;-74
2022/06/17 11:28:16;;;;;;;10.07;4.93;;;;;;;26.46;36.76;95101.41;5014417;28;20041;-74
2022/06/17 11:31:05;;;;;;;10.95;5.50;;;;;;;26.14;37.31;95098.31;5030979;28;20037;-74
2022/06/17 11:33:40;;;;;;;8.30;5.18;;;;;;;26.00;37.99;95089.75;5031176;28;20029;-74
2022/06/17 11:36:28;;;;;;;5.13;4.63;;;;;;;25.91;37.04;95092.50;5005486;28;20017;-73
2022/06/17 11:38:55;;;;;;;9.27;5.25;;;;;;;25.69;37.47;95082.88;5030742;28;20037;-74
2022/06/17 11:41:25;;;;;;;12.48;4.85;;;;;;;25.67;37.51;95085.03;5047984;28;20025;-74
2022/06/17 11:43:51;;;;;;;6.57;5.00;;;;;;;25.80;38.01;95079.84;5015338;28;20081;-75
2022/06/17 11:46:29;;;;;;;9.18;4.57;;;;;;;25.95;37.46;95079.28;5012685;28;20025;-73
2022/06/17 11:49:13;;;;;;;5.20;4.45;;;;;;;26.19;37.21;95071.44;5030629;28;20099;-74
2022/06/17 11:51:40;;;;;;;11.48;4.47;;;;;;;26.49;36.72;95066.09;5029420;28;20032;-74